Great Yarmouth, United Kingdom
Current Conditions -  °F | °C
As of 5:20 AM on Sunday 21 Dec 2014 (Local Time) from EGSH Reporting Station
Overcast Overcast  
Wind Chill: 36°   Ceiling: 4400
Heat Index: 43°   Visibility: 6mi
Dew Point: 39°   Wind: 14mph
Humidity: 87%   Direction: 240°WSW
Pressure: 30.3"   Gusts: NA
Location:  52.61°N, 1.73°E
Report Text: EGSH 210520Z AUTO 24012KT 9999 OVC044/// 06/04 Q1026
Loading
Personal Weather Stations






























Interactive Weather Map New forecast layout! Learn more

10-Day Weather Forecast

Advertisements
Track Severe Weather on mobile